sensor_id;sensor_type;location;lat;lon;timestamp;temperature;humidity
38866;DHT22;62686;48.984;8.394;2022-11-30T00:02:30;7.00;99.90
38866;DHT22;62686;48.984;8.394;2022-11-30T00:05:02;7.00;99.90
38866;DHT22;62686;48.984;8.394;2022-11-30T00:07:38;7.10;99.90
38866;DHT22;62686;48.984;8.394;2022-11-30T00:10:10;7.10;99.90
38866;DHT22;62686;48.984;8.394;2022-11-30T00:12:40;7.30;99.90
38866;DHT22;62686;48.984;8.394;2022-11-30T00:15:10;7.40;99.90
38866;DHT22;62686;48.984;8.394;2022-11-30T00:17:42;7.40;99.90
38866;DHT22;62686;48.984;8.394;2022-11-30T00:20:31;7.40;99.90
38866;DHT22;62686;48.984;8.394;2022-11-30T00:23:06;7.30;99.90
38866;DHT22;62686;48.984;8.394;2022-11-30T00:25:37;7.30;99.90
38866;DHT22;62686;48.984;8.394;2022-11-30T00:28:07;7.30;99.90
38866;DHT22;62686;48.984;8.394;2022-11-30T00:30:37;7.20;99.90
38866;DHT22;62686;48.984;8.394;2022-11-30T00:33:06;7.20;99.90
38866;DHT22;62686;48.984;8.394;2022-11-30T00:35:56;7.10;99.90
38866;DHT22;62686;48.984;8.394;2022-11-30T00:38:31;7.20;99.90
38866;DHT22;62686;48.984;8.394;2022-11-30T00:41:07;7.20;99.90
38866;DHT22;62686;48.984;8.394;2022-11-30T00:43:46;7.30;99.90
38866;DHT22;62686;48.984;8.394;2022-11-30T00:46:19;7.30;99.90
38866;DHT22;62686;48.984;8.394;2022-11-30T00:48:53;7.30;99.90
38866;DHT22;62686;48.984;8.394;2022-11-30T00:51:34;7.30;99.90
38866;DHT22;62686;48.984;8.394;2022-11-30T00:54:15;7.40;99.90
38866;DHT22;62686;48.984;8.394;2022-11-30T00:56:48;7.40;99.90
38866;DHT22;62686;48.984;8.394;2022-11-30T00:59:19;7.40;99.90
38866;DHT22;62686;48.984;8.394;2022-11-30T01:02:05;7.40;99.90
38866;DHT22;62686;48.984;8.394;2022-11-30T01:04:34;7.40;99.90
38866;DHT22;62686;48.984;8.394;2022-11-30T01:07:06;7.40;99.90
38866;DHT22;62686;48.984;8.394;2022-11-30T01:09:35;7.40;99.90
38866;DHT22;62686;48.984;8.394;2022-11-30T01:12:05;7.40;99.90
38866;DHT22;62686;48.984;8.394;2022-11-30T01:14:37;7.40;99.90
38866;DHT22;62686;48.984;8.394;2022-11-30T01:17:06;7.40;99.90
38866;DHT22;62686;48.984;8.394;2022-11-30T01:19:35;7.40;99.90
38866;DHT22;62686;48.984;8.394;2022-11-30T01:22:05;7.40;99.90
38866;DHT22;62686;48.984;8.394;2022-11-30T01:24:36;7.40;99.90
38866;DHT22;62686;48.984;8.394;2022-11-30T01:27:04;7.40;99.90
38866;DHT22;62686;48.984;8.394;2022-11-30T01:29:35;7.50;99.90
38866;DHT22;62686;48.984;8.394;2022-11-30T01:32:04;7.40;99.90
38866;DHT22;62686;48.984;8.394;2022-11-30T01:34:32;7.40;99.90
38866;DHT22;62686;48.984;8.394;2022-11-30T01:37:01;7.40;99.90
38866;DHT22;62686;48.984;8.394;2022-11-30T01:39:31;7.50;99.90
38866;DHT22;62686;48.984;8.394;2022-11-30T01:41:59;7.50;99.90
38866;DHT22;62686;48.984;8.394;2022-11-30T01:44:50;7.50;99.90
38866;DHT22;62686;48.984;8.394;2022-11-30T01:47:23;7.50;99.90
38866;DHT22;62686;48.984;8.394;2022-11-30T01:49:59;7.50;99.90
38866;DHT22;62686;48.984;8.394;2022-11-30T01:52:32;7.50;99.90
38866;DHT22;62686;48.984;8.394;2022-11-30T01:55:10;7.50;99.90
38866;DHT22;62686;48.984;8.394;2022-11-30T01:57:45;7.50;99.90
38866;DHT22;62686;48.984;8.394;2022-11-30T02:00:16;7.50;99.90
38866;DHT22;62686;48.984;8.394;2022-11-30T02:02:50;7.50;99.90
38866;DHT22;62686;48.984;8.394;2022-11-30T02:05:20;7.50;99.90
38866;DHT22;62686;48.984;8.394;2022-11-30T02:07:49;7.50;99.90
38866;DHT22;62686;48.984;8.394;2022-11-30T02:10:23;7.50;99.90
38866;DHT22;62686;48.984;8.394;2022-11-30T02:13:11;7.50;99.90
38866;DHT22;62686;48.984;8.394;2022-11-30T02:15:53;7.40;99.90
38866;DHT22;62686;48.984;8.394;2022-11-30T02:18:29;7.40;99.90
38866;DHT22;62686;48.984;8.394;2022-11-30T02:21:03;7.40;99.90
38866;DHT22;62686;48.984;8.394;2022-11-30T02:24:11;7.40;99.90
38866;DHT22;62686;48.984;8.394;2022-11-30T02:27:17;7.40;99.90
38866;DHT22;62686;48.984;8.394;2022-11-30T02:29:53;7.30;99.90
38866;DHT22;62686;48.984;8.394;2022-11-30T02:32:26;7.30;99.90
38866;DHT22;62686;48.984;8.394;2022-11-30T02:34:57;7.30;99.90
38866;DHT22;62686;48.984;8.394;2022-11-30T02:37:27;7.30;99.90
38866;DHT22;62686;48.984;8.394;2022-11-30T02:39:57;7.30;99.90
38866;DHT22;62686;48.984;8.394;2022-11-30T02:42:27;7.20;99.90
38866;DHT22;62686;48.984;8.394;2022-11-30T02:44:57;7.30;99.90
38866;DHT22;62686;48.984;8.394;2022-11-30T02:47:29;7.20;99.90
38866;DHT22;62686;48.984;8.394;2022-11-30T02:50:06;7.20;99.90
38866;DHT22;62686;48.984;8.394;2022-11-30T02:52:35;7.20;99.90
38866;DHT22;62686;48.984;8.394;2022-11-30T02:55:05;7.20;99.90
38866;DHT22;62686;48.984;8.394;2022-11-30T02:57:34;7.20;99.90
38866;DHT22;62686;48.984;8.394;2022-11-30T03:00:06;7.20;99.90
38866;DHT22;62686;48.984;8.394;2022-11-30T03:02:35;7.20;99.90
38866;DHT22;62686;48.984;8.394;2022-11-30T03:05:04;7.20;99.90
38866;DHT22;62686;48.984;8.394;2022-11-30T03:07:32;7.20;99.90
38866;DHT22;62686;48.984;8.394;2022-11-30T03:10:01;7.20;99.90
38866;DHT22;62686;48.984;8.394;2022-11-30T03:12:30;7.10;99.90
38866;DHT22;62686;48.984;8.394;2022-11-30T03:14:58;7.20;99.90
38866;DHT22;62686;48.984;8.394;2022-11-30T03:17:27;7.10;99.90
38866;DHT22;62686;48.984;8.394;2022-11-30T03:19:56;7.20;99.90
38866;DHT22;62686;48.984;8.394;2022-11-30T03:22:24;7.20;99.90
38866;DHT22;62686;48.984;8.394;2022-11-30T03:24:52;7.20;99.90
38866;DHT22;62686;48.984;8.394;2022-11-30T03:27:20;7.20;99.90
38866;DHT22;62686;48.984;8.394;2022-11-30T03:29:48;7.20;99.90
38866;DHT22;62686;48.984;8.394;2022-11-30T03:32:17;7.30;99.90
38866;DHT22;62686;48.984;8.394;2022-11-30T03:34:47;7.20;99.90
38866;DHT22;62686;48.984;8.394;2022-11-30T03:37:15;7.20;99.90
38866;DHT22;62686;48.984;8.394;2022-11-30T03:39:43;7.20;99.90
38866;DHT22;62686;48.984;8.394;2022-11-30T03:42:11;7.20;99.90
38866;DHT22;62686;48.984;8.394;2022-11-30T03:44:39;7.20;99.90
38866;DHT22;62686;48.984;8.394;2022-11-30T03:47:08;7.30;99.90
38866;DHT22;62686;48.984;8.394;2022-11-30T03:49:36;7.30;99.90
38866;DHT22;62686;48.984;8.394;2022-11-30T03:52:05;7.20;99.90
38866;DHT22;62686;48.984;8.394;2022-11-30T03:54:33;7.30;99.90
38866;DHT22;62686;48.984;8.394;2022-11-30T03:57:02;7.20;99.90
38866;DHT22;62686;48.984;8.394;2022-11-30T03:59:30;7.30;99.90
38866;DHT22;62686;48.984;8.394;2022-11-30T04:01:58;7.20;99.90
38866;DHT22;62686;48.984;8.394;2022-11-30T04:04:26;7.30;99.90
38866;DHT22;62686;48.984;8.394;2022-11-30T04:06:54;7.30;99.90
38866;DHT22;62686;48.984;8.394;2022-11-30T04:09:24;7.30;99.90
38866;DHT22;62686;48.984;8.394;2022-11-30T04:11:53;7.30;99.90
38866;DHT22;62686;48.984;8.394;2022-11-30T04:14:21;7.30;99.90
38866;DHT22;62686;48.984;8.394;2022-11-30T04:16:49;7.30;99.90
38866;DHT22;62686;48.984;8.394;2022-11-30T04:19:20;7.30;99.90
38866;DHT22;62686;48.984;8.394;2022-11-30T04:21:48;7.30;99.90
38866;DHT22;62686;48.984;8.394;2022-11-30T04:24:17;7.30;99.90
38866;DHT22;62686;48.984;8.394;2022-11-30T04:26:47;7.30;99.90
38866;DHT22;62686;48.984;8.394;2022-11-30T04:29:15;7.30;99.90
38866;DHT22;62686;48.984;8.394;2022-11-30T04:31:43;7.30;99.90
38866;DHT22;62686;48.984;8.394;2022-11-30T04:34:11;7.30;99.90
38866;DHT22;62686;48.984;8.394;2022-11-30T04:36:40;7.30;99.90
38866;DHT22;62686;48.984;8.394;2022-11-30T04:39:08;7.30;99.90
38866;DHT22;62686;48.984;8.394;2022-11-30T04:41:36;7.30;99.90
38866;DHT22;62686;48.984;8.394;2022-11-30T04:44:06;7.30;99.90
38866;DHT22;62686;48.984;8.394;2022-11-30T04:46:35;7.30;99.90
38866;DHT22;62686;48.984;8.394;2022-11-30T04:49:03;7.30;99.90
38866;DHT22;62686;48.984;8.394;2022-11-30T04:51:31;7.20;99.90
38866;DHT22;62686;48.984;8.394;2022-11-30T04:53:59;7.20;99.90
38866;DHT22;62686;48.984;8.394;2022-11-30T04:56:27;7.20;99.90
38866;DHT22;62686;48.984;8.394;2022-11-30T04:58:56;7.20;99.90
38866;DHT22;62686;48.984;8.394;2022-11-30T05:01:25;7.20;99.90
38866;DHT22;62686;48.984;8.394;2022-11-30T05:03:54;7.30;99.90
38866;DHT22;62686;48.984;8.394;2022-11-30T05:06:22;7.30;99.90
38866;DHT22;62686;48.984;8.394;2022-11-30T05:08:50;7.20;99.90
38866;DHT22;62686;48.984;8.394;2022-11-30T05:11:19;7.30;99.90
38866;DHT22;62686;48.984;8.394;2022-11-30T05:13:47;7.30;99.90
38866;DHT22;62686;48.984;8.394;2022-11-30T05:16:15;7.30;99.90
38866;DHT22;62686;48.984;8.394;2022-11-30T05:18:45;7.30;99.90
38866;DHT22;62686;48.984;8.394;2022-11-30T05:21:13;7.20;99.90
38866;DHT22;62686;48.984;8.394;2022-11-30T05:23:42;7.20;99.90
38866;DHT22;62686;48.984;8.394;2022-11-30T05:26:12;7.20;99.90
38866;DHT22;62686;48.984;8.394;2022-11-30T05:28:40;7.30;99.90
38866;DHT22;62686;48.984;8.394;2022-11-30T05:31:08;7.20;99.90
38866;DHT22;62686;48.984;8.394;2022-11-30T05:33:36;7.20;99.90
38866;DHT22;62686;48.984;8.394;2022-11-30T05:36:07;7.20;99.90
38866;DHT22;62686;48.984;8.394;2022-11-30T05:38:36;7.20;99.90
38866;DHT22;62686;48.984;8.394;2022-11-30T05:41:04;7.20;99.90
38866;DHT22;62686;48.984;8.394;2022-11-30T05:43:32;7.20;99.90
38866;DHT22;62686;48.984;8.394;2022-11-30T05:46:01;7.20;99.90
38866;DHT22;62686;48.984;8.394;2022-11-30T05:48:33;7.20;99.90
38866;DHT22;62686;48.984;8.394;2022-11-30T05:51:05;7.10;99.90
38866;DHT22;62686;48.984;8.394;2022-11-30T05:53:34;7.10;99.90
38866;DHT22;62686;48.984;8.394;2022-11-30T05:56:03;7.20;99.90
38866;DHT22;62686;48.984;8.394;2022-11-30T05:58:32;7.20;99.90
38866;DHT22;62686;48.984;8.394;2022-11-30T06:01:00;7.10;99.90
38866;DHT22;62686;48.984;8.394;2022-11-30T06:03:31;7.10;99.90
38866;DHT22;62686;48.984;8.394;2022-11-30T06:05:59;7.10;99.90
38866;DHT22;62686;48.984;8.394;2022-11-30T06:08:29;7.00;99.90
38866;DHT22;62686;48.984;8.394;2022-11-30T06:10:59;7.00;99.90
38866;DHT22;62686;48.984;8.394;2022-11-30T06:13:27;6.90;99.90
38866;DHT22;62686;48.984;8.394;2022-11-30T06:15:58;6.80;99.90
38866;DHT22;62686;48.984;8.394;2022-11-30T06:18:27;6.80;99.90
38866;DHT22;62686;48.984;8.394;2022-11-30T06:20:59;6.80;99.90
38866;DHT22;62686;48.984;8.394;2022-11-30T06:23:30;6.70;99.90
38866;DHT22;62686;48.984;8.394;2022-11-30T06:26:02;6.70;99.80
38866;DHT22;62686;48.984;8.394;2022-11-30T06:28:31;6.80;99.50
38866;DHT22;62686;48.984;8.394;2022-11-30T06:31:02;6.70;99.00
38866;DHT22;62686;48.984;8.394;2022-11-30T06:33:31;6.70;98.80
38866;DHT22;62686;48.984;8.394;2022-11-30T06:36:00;6.70;98.70
38866;DHT22;62686;48.984;8.394;2022-11-30T06:38:30;6.60;98.60
38866;DHT22;62686;48.984;8.394;2022-11-30T06:41:02;6.60;98.40
38866;DHT22;62686;48.984;8.394;2022-11-30T06:43:32;6.60;98.30
38866;DHT22;62686;48.984;8.394;2022-11-30T06:46:01;6.60;98.30
38866;DHT22;62686;48.984;8.394;2022-11-30T06:48:30;6.60;98.40
38866;DHT22;62686;48.984;8.394;2022-11-30T06:50:58;6.60;98.50
38866;DHT22;62686;48.984;8.394;2022-11-30T06:53:27;6.60;98.60
38866;DHT22;62686;48.984;8.394;2022-11-30T06:55:57;6.60;98.60
38866;DHT22;62686;48.984;8.394;2022-11-30T06:58:25;6.60;98.80
38866;DHT22;62686;48.984;8.394;2022-11-30T07:01:05;6.60;99.00
38866;DHT22;62686;48.984;8.394;2022-11-30T07:03:37;6.60;99.10
38866;DHT22;62686;48.984;8.394;2022-11-30T07:06:07;6.60;99.30
38866;DHT22;62686;48.984;8.394;2022-11-30T07:08:36;6.60;99.50
38866;DHT22;62686;48.984;8.394;2022-11-30T07:11:08;6.60;99.60
38866;DHT22;62686;48.984;8.394;2022-11-30T07:13:37;6.60;99.80
38866;DHT22;62686;48.984;8.394;2022-11-30T07:16:14;6.60;99.90
38866;DHT22;62686;48.984;8.394;2022-11-30T07:19:31;6.60;99.90
38866;DHT22;62686;48.984;8.394;2022-11-30T07:22:26;6.60;99.90
38866;DHT22;62686;48.984;8.394;2022-11-30T07:25:36;6.60;99.90
38866;DHT22;62686;48.984;8.394;2022-11-30T07:28:43;6.70;99.90
38866;DHT22;62686;48.984;8.394;2022-11-30T07:31:34;6.60;99.90
38866;DHT22;62686;48.984;8.394;2022-11-30T07:34:37;6.60;99.90
38866;DHT22;62686;48.984;8.394;2022-11-30T07:37:48;6.60;99.90
38866;DHT22;62686;48.984;8.394;2022-11-30T07:40:49;6.60;99.90
38866;DHT22;62686;48.984;8.394;2022-11-30T07:44:16;6.60;99.90
38866;DHT22;62686;48.984;8.394;2022-11-30T07:50:49;6.70;99.90
38866;DHT22;62686;48.984;8.394;2022-11-30T07:53:40;6.70;99.80
38866;DHT22;62686;48.984;8.394;2022-11-30T07:56:37;6.70;99.70
38866;DHT22;62686;48.984;8.394;2022-11-30T08:00:17;6.80;99.50
38866;DHT22;62686;48.984;8.394;2022-11-30T08:03:20;6.70;99.10
38866;DHT22;62686;48.984;8.394;2022-11-30T08:06:27;6.70;98.70
38866;DHT22;62686;48.984;8.394;2022-11-30T08:09:30;6.80;98.50
38866;DHT22;62686;48.984;8.394;2022-11-30T08:13:01;6.80;98.10
38866;DHT22;62686;48.984;8.394;2022-11-30T08:15:41;6.80;98.00
38866;DHT22;62686;48.984;8.394;2022-11-30T08:18:23;6.90;97.90
38866;DHT22;62686;48.984;8.394;2022-11-30T08:20:57;6.90;97.30
38866;DHT22;62686;48.984;8.394;2022-11-30T08:23:27;7.00;96.90
38866;DHT22;62686;48.984;8.394;2022-11-30T08:26:01;7.00;95.40
38866;DHT22;62686;48.984;8.394;2022-11-30T08:28:33;7.00;94.30
38866;DHT22;62686;48.984;8.394;2022-11-30T08:31:12;7.00;94.10
38866;DHT22;62686;48.984;8.394;2022-11-30T08:33:47;7.10;94.80
38866;DHT22;62686;48.984;8.394;2022-11-30T08:36:36;7.10;95.20
38866;DHT22;62686;48.984;8.394;2022-11-30T08:39:19;7.20;94.60
38866;DHT22;62686;48.984;8.394;2022-11-30T08:41:58;7.20;94.20
38866;DHT22;62686;48.984;8.394;2022-11-30T08:44:56;7.30;93.00
38866;DHT22;62686;48.984;8.394;2022-11-30T08:47:42;7.30;91.10
38866;DHT22;62686;48.984;8.394;2022-11-30T08:50:23;7.30;90.80
38866;DHT22;62686;48.984;8.394;2022-11-30T08:52:55;7.40;91.20
38866;DHT22;62686;48.984;8.394;2022-11-30T08:55:32;7.50;90.10
38866;DHT22;62686;48.984;8.394;2022-11-30T08:58:25;7.50;89.60
38866;DHT22;62686;48.984;8.394;2022-11-30T09:01:07;7.50;87.30
38866;DHT22;62686;48.984;8.394;2022-11-30T09:04:15;7.60;88.00
38866;DHT22;62686;48.984;8.394;2022-11-30T09:07:25;7.70;84.50
38866;DHT22;62686;48.984;8.394;2022-11-30T09:10:11;7.70;82.60
38866;DHT22;62686;48.984;8.394;2022-11-30T09:12:54;7.70;83.00
38866;DHT22;62686;48.984;8.394;2022-11-30T09:15:33;7.70;80.50
38866;DHT22;62686;48.984;8.394;2022-11-30T09:18:33;7.70;76.10
38866;DHT22;62686;48.984;8.394;2022-11-30T09:21:28;7.60;78.20
38866;DHT22;62686;48.984;8.394;2022-11-30T09:24:30;7.60;80.50
38866;DHT22;62686;48.984;8.394;2022-11-30T09:27:23;7.60;76.70
38866;DHT22;62686;48.984;8.394;2022-11-30T09:30:14;7.60;81.40
38866;DHT22;62686;48.984;8.394;2022-11-30T09:32:48;7.60;84.60
38866;DHT22;62686;48.984;8.394;2022-11-30T09:35:39;7.60;85.60
38866;DHT22;62686;48.984;8.394;2022-11-30T09:38:30;7.60;85.00
38866;DHT22;62686;48.984;8.394;2022-11-30T09:44:23;7.70;87.40
38866;DHT22;62686;48.984;8.394;2022-11-30T09:47:25;7.70;86.70
38866;DHT22;62686;48.984;8.394;2022-11-30T09:51:02;7.70;84.80
38866;DHT22;62686;48.984;8.394;2022-11-30T09:54:14;7.90;79.80
38866;DHT22;62686;48.984;8.394;2022-11-30T09:57:20;8.00;76.80
38866;DHT22;62686;48.984;8.394;2022-11-30T10:00:23;8.00;73.50
38866;DHT22;62686;48.984;8.394;2022-11-30T10:03:23;8.10;66.70
38866;DHT22;62686;48.984;8.394;2022-11-30T10:06:07;8.20;61.10
38866;DHT22;62686;48.984;8.394;2022-11-30T10:09:28;8.30;62.30
38866;DHT22;62686;48.984;8.394;2022-11-30T10:12:03;8.40;57.60
38866;DHT22;62686;48.984;8.394;2022-11-30T10:14:59;8.40;55.10
38866;DHT22;62686;48.984;8.394;2022-11-30T10:17:37;8.40;50.60
38866;DHT22;62686;48.984;8.394;2022-11-30T10:20:24;8.40;51.10
38866;DHT22;62686;48.984;8.394;2022-11-30T10:23:07;8.30;55.60
38866;DHT22;62686;48.984;8.394;2022-11-30T10:25:48;8.30;58.30
38866;DHT22;62686;48.984;8.394;2022-11-30T10:28:28;8.30;58.10
38866;DHT22;62686;48.984;8.394;2022-11-30T10:31:13;8.30;55.20
38866;DHT22;62686;48.984;8.394;2022-11-30T10:33:45;8.30;60.00
38866;DHT22;62686;48.984;8.394;2022-11-30T10:36:24;8.20;58.40
38866;DHT22;62686;48.984;8.394;2022-11-30T10:39:05;8.20;61.70
38866;DHT22;62686;48.984;8.394;2022-11-30T10:41:48;8.20;58.20
38866;DHT22;62686;48.984;8.394;2022-11-30T10:44:22;8.20;57.90
38866;DHT22;62686;48.984;8.394;2022-11-30T10:46:58;8.30;61.60
38866;DHT22;62686;48.984;8.394;2022-11-30T10:49:39;8.40;59.50
38866;DHT22;62686;48.984;8.394;2022-11-30T10:52:24;8.50;59.00
38866;DHT22;62686;48.984;8.394;2022-11-30T10:54:55;8.60;52.40
38866;DHT22;62686;48.984;8.394;2022-11-30T10:57:30;8.60;48.80
38866;DHT22;62686;48.984;8.394;2022-11-30T11:00:03;8.70;50.00
38866;DHT22;62686;48.984;8.394;2022-11-30T11:02:39;8.70;51.30
38866;DHT22;62686;48.984;8.394;2022-11-30T11:05:20;8.70;48.00
38866;DHT22;62686;48.984;8.394;2022-11-30T11:07:52;8.90;45.30
38866;DHT22;62686;48.984;8.394;2022-11-30T11:10:33;9.00;45.00
38866;DHT22;62686;48.984;8.394;2022-11-30T11:13:04;9.00;28.00
38866;DHT22;62686;48.984;8.394;2022-11-30T11:15:34;9.20;26.70
38866;DHT22;62686;48.984;8.394;2022-11-30T11:18:20;9.40;28.70
38866;DHT22;62686;48.984;8.394;2022-11-30T11:21:00;9.90;20.60
38866;DHT22;62686;48.984;8.394;2022-11-30T11:23:34;10.30;2.30
38866;DHT22;62686;48.984;8.394;2022-11-30T11:26:20;10.40;1.00
38866;DHT22;62686;48.984;8.394;2022-11-30T11:28:56;10.50;1.00
38866;DHT22;62686;48.984;8.394;2022-11-30T11:31:42;10.40;1.00
38866;DHT22;62686;48.984;8.394;2022-11-30T11:34:24;10.20;1.00
38866;DHT22;62686;48.984;8.394;2022-11-30T11:37:05;10.00;1.00
38866;DHT22;62686;48.984;8.394;2022-11-30T11:39:40;9.80;1.00
38866;DHT22;62686;48.984;8.394;2022-11-30T11:42:41;9.60;3.90
38866;DHT22;62686;48.984;8.394;2022-11-30T11:45:52;9.40;2.70
38866;DHT22;62686;48.984;8.394;2022-11-30T11:48:34;9.30;9.00
38866;DHT22;62686;48.984;8.394;2022-11-30T11:51:13;9.40;13.90
38866;DHT22;62686;48.984;8.394;2022-11-30T11:53:47;9.50;9.80
38866;DHT22;62686;48.984;8.394;2022-11-30T11:56:36;9.60;1.00
38866;DHT22;62686;48.984;8.394;2022-11-30T11:59:14;9.80;3.50
38866;DHT22;62686;48.984;8.394;2022-11-30T12:02:02;10.00;1.00
38866;DHT22;62686;48.984;8.394;2022-11-30T12:05:06;10.20;1.00
38866;DHT22;62686;48.984;8.394;2022-11-30T12:08:08;10.20;1.00
38866;DHT22;62686;48.984;8.394;2022-11-30T12:10:55;10.50;1.00
38866;DHT22;62686;48.984;8.394;2022-11-30T12:13:30;10.40;1.00
38866;DHT22;62686;48.984;8.394;2022-11-30T12:16:17;10.40;1.00
38866;DHT22;62686;48.984;8.394;2022-11-30T12:18:56;10.50;1.00
38866;DHT22;62686;48.984;8.394;2022-11-30T12:21:39;10.40;1.00
38866;DHT22;62686;48.984;8.394;2022-11-30T12:24:54;10.30;1.00
38866;DHT22;62686;48.984;8.394;2022-11-30T12:27:39;10.20;1.00
38866;DHT22;62686;48.984;8.394;2022-11-30T12:30:31;10.20;1.00
38866;DHT22;62686;48.984;8.394;2022-11-30T12:33:10;9.90;1.00
38866;DHT22;62686;48.984;8.394;2022-11-30T12:35:57;9.80;1.00
38866;DHT22;62686;48.984;8.394;2022-11-30T12:38:36;9.80;1.00
38866;DHT22;62686;48.984;8.394;2022-11-30T12:41:29;9.80;1.00
38866;DHT22;62686;48.984;8.394;2022-11-30T12:44:22;9.80;1.00
38866;DHT22;62686;48.984;8.394;2022-11-30T12:47:10;9.80;1.10
38866;DHT22;62686;48.984;8.394;2022-11-30T12:50:15;9.80;1.00
38866;DHT22;62686;48.984;8.394;2022-11-30T12:52:55;9.60;1.00
38866;DHT22;62686;48.984;8.394;2022-11-30T12:55:37;9.60;8.20
38866;DHT22;62686;48.984;8.394;2022-11-30T12:58:14;9.40;1.50
38866;DHT22;62686;48.984;8.394;2022-11-30T13:00:56;9.20;13.20
38866;DHT22;62686;48.984;8.394;2022-11-30T13:03:42;9.10;17.40
38866;DHT22;62686;48.984;8.394;2022-11-30T13:06:23;9.00;22.10
38866;DHT22;62686;48.984;8.394;2022-11-30T13:08:59;9.00;26.40
38866;DHT22;62686;48.984;8.394;2022-11-30T13:11:38;8.90;22.30
38866;DHT22;62686;48.984;8.394;2022-11-30T13:14:14;8.90;25.40
38866;DHT22;62686;48.984;8.394;2022-11-30T13:16:46;8.80;25.00
38866;DHT22;62686;48.984;8.394;2022-11-30T13:19:41;8.80;24.30
38866;DHT22;62686;48.984;8.394;2022-11-30T13:22:21;8.80;30.90
38866;DHT22;62686;48.984;8.394;2022-11-30T13:25:15;8.80;27.80
38866;DHT22;62686;48.984;8.394;2022-11-30T13:28:29;8.80;21.50
38866;DHT22;62686;48.984;8.394;2022-11-30T13:31:04;8.70;29.40
38866;DHT22;62686;48.984;8.394;2022-11-30T13:33:55;8.80;25.10
38866;DHT22;62686;48.984;8.394;2022-11-30T13:36:36;8.80;23.10
38866;DHT22;62686;48.984;8.394;2022-11-30T13:39:27;8.80;27.10
38866;DHT22;62686;48.984;8.394;2022-11-30T13:42:31;8.80;21.20
38866;DHT22;62686;48.984;8.394;2022-11-30T13:45:30;8.90;26.40
38866;DHT22;62686;48.984;8.394;2022-11-30T13:48:17;8.90;23.80
38866;DHT22;62686;48.984;8.394;2022-11-30T13:51:15;8.90;13.80
38866;DHT22;62686;48.984;8.394;2022-11-30T13:54:43;8.90;16.50
38866;DHT22;62686;48.984;8.394;2022-11-30T13:57:18;8.90;22.40
38866;DHT22;62686;48.984;8.394;2022-11-30T14:03:40;8.80;15.60
38866;DHT22;62686;48.984;8.394;2022-11-30T14:06:46;8.90;22.80
38866;DHT22;62686;48.984;8.394;2022-11-30T14:18:23;8.70;18.20
38866;DHT22;62686;48.984;8.394;2022-11-30T14:20:58;8.70;22.00
38866;DHT22;62686;48.984;8.394;2022-11-30T14:23:51;8.60;22.30
38866;DHT22;62686;48.984;8.394;2022-11-30T14:26:26;8.60;27.60
38866;DHT22;62686;48.984;8.394;2022-11-30T14:29:09;8.60;32.10
38866;DHT22;62686;48.984;8.394;2022-11-30T14:31:50;8.50;31.10
38866;DHT22;62686;48.984;8.394;2022-11-30T14:34:23;8.50;31.10
38866;DHT22;62686;48.984;8.394;2022-11-30T14:37:34;8.40;26.40
38866;DHT22;62686;48.984;8.394;2022-11-30T14:40:12;8.40;31.80
38866;DHT22;62686;48.984;8.394;2022-11-30T14:42:50;8.30;35.00
38866;DHT22;62686;48.984;8.394;2022-11-30T14:45:24;8.30;39.00
38866;DHT22;62686;48.984;8.394;2022-11-30T14:48:06;8.30;42.30
38866;DHT22;62686;48.984;8.394;2022-11-30T14:50:56;8.30;40.80
38866;DHT22;62686;48.984;8.394;2022-11-30T14:53:35;8.30;43.40
38866;DHT22;62686;48.984;8.394;2022-11-30T14:56:14;8.30;45.30
38866;DHT22;62686;48.984;8.394;2022-11-30T14:58:51;8.30;42.50
38866;DHT22;62686;48.984;8.394;2022-11-30T15:01:30;8.20;44.10
38866;DHT22;62686;48.984;8.394;2022-11-30T15:04:08;8.20;48.80
38866;DHT22;62686;48.984;8.394;2022-11-30T15:06:55;8.20;51.80
38866;DHT22;62686;48.984;8.394;2022-11-30T15:09:37;8.10;52.20
38866;DHT22;62686;48.984;8.394;2022-11-30T15:12:16;8.10;50.60
38866;DHT22;62686;48.984;8.394;2022-11-30T15:15:11;8.10;50.90
38866;DHT22;62686;48.984;8.394;2022-11-30T15:17:49;8.10;54.10
38866;DHT22;62686;48.984;8.394;2022-11-30T15:20:29;8.00;56.10
38866;DHT22;62686;48.984;8.394;2022-11-30T15:23:01;8.00;59.40
38866;DHT22;62686;48.984;8.394;2022-11-30T15:25:37;8.00;59.20
38866;DHT22;62686;48.984;8.394;2022-11-30T15:28:13;8.00;59.30
38866;DHT22;62686;48.984;8.394;2022-11-30T15:30:46;8.00;61.80
38866;DHT22;62686;48.984;8.394;2022-11-30T15:33:17;8.00;64.40
38866;DHT22;62686;48.984;8.394;2022-11-30T15:35:48;8.00;65.00
38866;DHT22;62686;48.984;8.394;2022-11-30T15:38:39;8.00;58.70
38866;DHT22;62686;48.984;8.394;2022-11-30T15:41:18;8.00;55.90
38866;DHT22;62686;48.984;8.394;2022-11-30T15:43:51;8.00;53.00
38866;DHT22;62686;48.984;8.394;2022-11-30T15:46:32;8.00;54.10
38866;DHT22;62686;48.984;8.394;2022-11-30T15:49:15;8.00;57.50
38866;DHT22;62686;48.984;8.394;2022-11-30T15:52:17;7.90;58.80
38866;DHT22;62686;48.984;8.394;2022-11-30T15:54:47;7.80;62.20
38866;DHT22;62686;48.984;8.394;2022-11-30T15:57:56;7.80;56.00
38866;DHT22;62686;48.984;8.394;2022-11-30T16:00:28;7.80;55.70
38866;DHT22;62686;48.984;8.394;2022-11-30T16:03:30;7.80;55.90
38866;DHT22;62686;48.984;8.394;2022-11-30T16:06:02;7.80;57.90
38866;DHT22;62686;48.984;8.394;2022-11-30T16:08:34;7.80;56.80
38866;DHT22;62686;48.984;8.394;2022-11-30T16:11:04;7.70;60.60
38866;DHT22;62686;48.984;8.394;2022-11-30T16:13:40;7.70;59.60
38866;DHT22;62686;48.984;8.394;2022-11-30T16:16:30;7.70;62.40
38866;DHT22;62686;48.984;8.394;2022-11-30T16:19:02;7.70;64.50
38866;DHT22;62686;48.984;8.394;2022-11-30T16:21:32;7.70;65.00
38866;DHT22;62686;48.984;8.394;2022-11-30T16:24:25;7.70;62.50
38866;DHT22;62686;48.984;8.394;2022-11-30T16:26:55;7.70;55.80
38866;DHT22;62686;48.984;8.394;2022-11-30T16:29:31;7.70;53.50
38866;DHT22;62686;48.984;8.394;2022-11-30T16:32:01;7.70;51.90
38866;DHT22;62686;48.984;8.394;2022-11-30T16:34:31;7.70;55.60
38866;DHT22;62686;48.984;8.394;2022-11-30T16:37:06;7.60;57.50
38866;DHT22;62686;48.984;8.394;2022-11-30T16:39:37;7.60;56.80
38866;DHT22;62686;48.984;8.394;2022-11-30T16:42:13;7.60;55.60
38866;DHT22;62686;48.984;8.394;2022-11-30T16:44:55;7.70;54.50
38866;DHT22;62686;48.984;8.394;2022-11-30T16:47:25;7.70;56.40
38866;DHT22;62686;48.984;8.394;2022-11-30T16:50:25;7.70;52.00
38866;DHT22;62686;48.984;8.394;2022-11-30T16:52:59;7.60;57.70
38866;DHT22;62686;48.984;8.394;2022-11-30T16:55:31;7.60;55.30
38866;DHT22;62686;48.984;8.394;2022-11-30T16:58:06;7.70;50.00
38866;DHT22;62686;48.984;8.394;2022-11-30T17:00:55;7.80;47.90
38866;DHT22;62686;48.984;8.394;2022-11-30T17:03:52;7.70;49.90
38866;DHT22;62686;48.984;8.394;2022-11-30T17:06:33;7.60;52.70
38866;DHT22;62686;48.984;8.394;2022-11-30T17:09:15;7.70;55.10
38866;DHT22;62686;48.984;8.394;2022-11-30T17:11:50;7.60;57.80
38866;DHT22;62686;48.984;8.394;2022-11-30T17:14:34;7.60;56.50
38866;DHT22;62686;48.984;8.394;2022-11-30T17:17:15;7.60;60.40
38866;DHT22;62686;48.984;8.394;2022-11-30T17:19:49;7.60;56.80
38866;DHT22;62686;48.984;8.394;2022-11-30T17:22:22;7.60;57.20
38866;DHT22;62686;48.984;8.394;2022-11-30T17:24:57;7.60;55.60